createdAt,value
2023-05-11T00:00:16.818Z,85.97
2023-05-11T00:02:46.030Z,86.81
2023-05-11T00:05:16.126Z,85.98
2023-05-11T00:07:44.439Z,85.51
2023-05-11T00:10:13.004Z,85.98
2023-05-11T00:12:41.292Z,86.80
2023-05-11T00:15:10.257Z,87.82
2023-05-11T00:17:38.552Z,88.53
2023-05-11T00:20:08.109Z,86.91
2023-05-11T00:22:37.712Z,86.16
2023-05-11T00:25:06.910Z,85.87
2023-05-11T00:27:35.231Z,86.38
2023-05-11T00:30:03.947Z,88.98
2023-05-11T00:32:32.246Z,89.16
2023-05-11T00:35:00.653Z,88.34
2023-05-11T00:37:28.817Z,87.70
2023-05-11T00:39:58.489Z,88.29
2023-05-11T00:42:26.757Z,88.64
2023-05-11T00:44:55.022Z,88.10
2023-05-11T00:47:23.392Z,87.88
2023-05-11T00:49:53.793Z,88.90
2023-05-11T00:52:23.227Z,89.25
2023-05-11T00:54:52.434Z,88.79
2023-05-11T00:57:22.542Z,89.26
2023-05-11T00:59:51.198Z,90.58
2023-05-11T01:02:20.088Z,90.89
2023-05-11T01:04:48.528Z,90.56
2023-05-11T01:07:25.278Z,86.37
2023-05-11T01:10:05.167Z,88.87
2023-05-11T01:12:41.850Z,89.49
2023-05-11T01:15:13.131Z,90.40
2023-05-11T01:17:47.758Z,91.20
2023-05-11T01:20:20.238Z,92.28
2023-05-11T01:23:11.576Z,91.47
2023-05-11T01:26:03.948Z,91.21
2023-05-11T01:28:54.261Z,88.77
2023-05-11T01:31:26.445Z,90.70
2023-05-11T01:33:58.948Z,91.73
2023-05-11T01:36:31.761Z,91.48
2023-05-11T01:39:03.908Z,91.48
2023-05-11T01:41:35.059Z,90.44
2023-05-11T01:44:07.558Z,89.94
2023-05-11T01:46:38.666Z,89.86
2023-05-11T01:49:09.227Z,90.20
2023-05-11T01:51:39.743Z,90.57
2023-05-11T01:54:10.197Z,89.85
2023-05-11T01:56:41.838Z,88.96
2023-05-11T01:59:12.005Z,88.34
2023-05-11T02:01:42.598Z,89.43
2023-05-11T02:04:12.049Z,90.04
2023-05-11T02:06:42.068Z,92.82
2023-05-11T02:09:12.925Z,94.18
2023-05-11T02:11:43.691Z,94.46
2023-05-11T02:14:13.608Z,95.69
2023-05-11T02:16:44.113Z,97.75
2023-05-11T02:19:14.975Z,100.00
2023-05-11T02:21:45.219Z,100.00
2023-05-11T02:24:13.755Z,100.00
2023-05-11T02:26:42.070Z,100.00
2023-05-11T02:29:10.486Z,100.00
2023-05-11T02:31:45.077Z,100.00
2023-05-11T02:34:21.133Z,100.00
2023-05-11T02:36:50.749Z,100.00
2023-05-11T02:39:22.901Z,100.00
2023-05-11T02:41:57.483Z,100.00
2023-05-11T02:44:30.218Z,100.00
2023-05-11T02:47:02.547Z,99.75
2023-05-11T02:49:33.850Z,98.99
2023-05-11T02:52:04.762Z,99.58
2023-05-11T02:54:34.365Z,97.22
2023-05-11T02:57:03.973Z,98.55
2023-05-11T02:59:32.676Z,100.00
2023-05-11T03:02:02.466Z,100.00
2023-05-11T03:04:31.032Z,98.96
2023-05-11T03:06:59.482Z,98.66
2023-05-11T03:09:27.710Z,96.96
2023-05-11T03:11:56.390Z,99.32
2023-05-11T03:14:25.103Z,98.49
2023-05-11T03:16:54.980Z,97.76
2023-05-11T03:19:25.185Z,98.41
2023-05-11T03:21:54.229Z,97.08
2023-05-11T03:24:23.296Z,99.30
2023-05-11T03:26:52.829Z,100.00
2023-05-11T03:29:21.911Z,100.00
2023-05-11T03:31:51.311Z,100.00
2023-05-11T03:34:19.949Z,100.00
2023-05-11T03:36:50.484Z,100.00
2023-05-11T03:39:19.449Z,100.00
2023-05-11T03:41:51.355Z,100.00
2023-05-11T03:44:20.909Z,100.00
2023-05-11T03:46:50.606Z,100.00
2023-05-11T03:49:19.977Z,100.00
2023-05-11T03:51:50.284Z,100.00
2023-05-11T03:54:18.676Z,100.00
2023-05-11T03:56:47.175Z,100.00
2023-05-11T03:59:16.945Z,100.00
2023-05-11T04:01:46.092Z,100.00
2023-05-11T04:04:14.480Z,100.00
2023-05-11T04:06:42.719Z,100.00
2023-05-11T04:09:12.438Z,100.00
2023-05-11T04:11:40.864Z,100.00
2023-05-11T04:14:09.225Z,100.00
2023-05-11T04:16:37.513Z,100.00
2023-05-11T04:19:06.634Z,100.00
2023-05-11T04:21:35.608Z,100.00
2023-05-11T04:24:03.971Z,100.00
2023-05-11T04:26:33.621Z,100.00
2023-05-11T04:29:01.965Z,100.00
2023-05-11T04:31:30.689Z,100.00
2023-05-11T04:33:59.127Z,100.00
2023-05-11T04:36:27.617Z,100.00
2023-05-11T04:38:55.962Z,100.00
2023-05-11T04:41:24.306Z,100.00
2023-05-11T04:43:53.990Z,100.00
2023-05-11T04:46:23.143Z,100.00
2023-05-11T04:48:51.497Z,100.00
2023-05-11T04:51:19.925Z,98.90
2023-05-11T04:53:48.223Z,98.27
2023-05-11T04:56:16.591Z,97.61
2023-05-11T04:58:44.967Z,96.59
2023-05-11T05:01:14.738Z,100.00
2023-05-11T05:03:43.134Z,98.25
2023-05-11T05:06:11.508Z,98.22
2023-05-11T05:08:39.801Z,99.03
2023-05-11T05:11:08.188Z,96.03
2023-05-11T05:13:36.457Z,97.88
2023-05-11T05:16:05.122Z,99.27
2023-05-11T05:18:34.896Z,100.00
2023-05-11T05:21:03.182Z,99.60
2023-05-11T05:23:31.898Z,99.69
2023-05-11T05:26:00.116Z,97.15
2023-05-11T05:28:30.286Z,96.98
2023-05-11T05:30:59.368Z,99.09
2023-05-11T05:33:27.745Z,100.00
2023-05-11T05:35:57.504Z,100.00
2023-05-11T05:38:25.908Z,100.00
2023-05-11T05:40:54.283Z,100.00
2023-05-11T05:43:22.621Z,100.00
2023-05-11T05:45:50.904Z,100.00
2023-05-11T05:48:19.241Z,100.00
2023-05-11T05:50:48.262Z,100.00
2023-05-11T05:53:17.980Z,100.00
2023-05-11T05:55:46.239Z,100.00
2023-05-11T05:58:14.546Z,100.00
2023-05-11T06:00:42.940Z,100.00
2023-05-11T06:03:11.367Z,100.00
2023-05-11T06:05:39.715Z,100.00
2023-05-11T06:08:10.943Z,100.00
2023-05-11T06:10:41.111Z,100.00
2023-05-11T06:13:09.898Z,100.00
2023-05-11T06:15:38.880Z,100.00
2023-05-11T06:18:07.826Z,100.00
2023-05-11T06:20:36.380Z,100.00
2023-05-11T06:23:04.588Z,100.00
2023-05-11T06:25:35.352Z,96.60
2023-05-11T06:28:05.278Z,98.78
2023-05-11T06:30:33.602Z,100.00
2023-05-11T06:33:01.850Z,100.00
2023-05-11T06:35:30.729Z,100.00
2023-05-11T06:37:59.440Z,99.84
2023-05-11T06:40:27.880Z,95.33
2023-05-11T06:42:56.226Z,94.15
2023-05-11T06:45:26.028Z,92.58
2023-05-11T06:47:54.441Z,92.27
2023-05-11T06:50:25.098Z,88.69
2023-05-11T06:52:55.691Z,86.60
2023-05-11T06:55:24.109Z,87.73
2023-05-11T06:57:52.517Z,87.11
2023-05-11T07:00:21.425Z,85.48
2023-05-11T07:02:51.205Z,86.29
2023-05-11T07:05:19.698Z,84.71
2023-05-11T07:07:47.990Z,79.58
2023-05-11T07:10:16.482Z,76.91
2023-05-11T07:12:45.030Z,79.44
2023-05-11T07:15:13.830Z,79.20
2023-05-11T07:17:42.151Z,77.55
2023-05-11T07:20:12.703Z,76.04
2023-05-11T07:22:41.001Z,71.24
2023-05-11T07:25:10.876Z,71.07
2023-05-11T07:27:39.310Z,70.54
2023-05-11T07:30:08.810Z,70.09
2023-05-11T07:32:37.132Z,67.28
2023-05-11T07:35:07.940Z,65.33
2023-05-11T07:37:37.609Z,64.50
2023-05-11T07:40:07.054Z,67.88
2023-05-11T07:42:35.379Z,66.69
2023-05-11T07:45:03.579Z,64.37
2023-05-11T07:47:33.652Z,65.19
2023-05-11T07:50:03.663Z,62.21
2023-05-11T07:52:31.999Z,63.19
2023-05-11T07:55:01.723Z,62.19
2023-05-11T07:57:30.063Z,61.12
2023-05-11T07:59:58.272Z,61.77
2023-05-11T08:02:26.734Z,62.56
2023-05-11T08:04:55.101Z,61.96
2023-05-11T08:07:23.377Z,61.09
2023-05-11T08:09:51.793Z,61.12
2023-05-11T08:12:21.576Z,62.82
2023-05-11T08:14:49.923Z,61.25
2023-05-11T08:17:18.371Z,60.43
2023-05-11T08:19:46.647Z,58.36
2023-05-11T08:22:14.975Z,59.45
2023-05-11T08:24:43.773Z,58.23
2023-05-11T08:27:12.213Z,56.39
2023-05-11T08:29:41.872Z,53.72
2023-05-11T08:32:10.611Z,54.04
2023-05-11T08:34:39.173Z,54.16
2023-05-11T08:37:07.496Z,55.74
2023-05-11T08:39:46.736Z,52.48
2023-05-11T08:42:17.838Z,53.61
2023-05-11T08:44:49.365Z,53.28
2023-05-11T08:47:23.424Z,53.56
2023-05-11T08:49:53.674Z,54.86
2023-05-11T08:52:22.331Z,55.78
2023-05-11T08:54:50.741Z,55.69
2023-05-11T08:57:19.239Z,53.54
2023-05-11T08:59:50.680Z,54.22
2023-05-11T09:02:20.706Z,51.86
2023-05-11T09:04:49.378Z,48.82
2023-05-11T09:07:18.760Z,48.42
2023-05-11T09:09:47.996Z,49.43
2023-05-11T09:12:17.652Z,47.04
2023-05-11T09:14:47.233Z,47.59
2023-05-11T09:17:16.988Z,45.18
2023-05-11T09:20:08.414Z,48.06
2023-05-11T09:22:42.404Z,45.11
2023-05-11T09:25:13.569Z,45.20
2023-05-11T09:27:45.190Z,44.41
2023-05-11T09:30:22.040Z,46.07
2023-05-11T09:32:53.923Z,43.62
2023-05-11T09:35:27.556Z,47.30
2023-05-11T09:38:07.062Z,43.10
2023-05-11T09:40:38.313Z,44.19
2023-05-11T09:43:18.953Z,45.44
2023-05-11T09:45:48.699Z,48.49
2023-05-11T09:48:28.537Z,48.06
2023-05-11T09:51:07.683Z,48.34
2023-05-11T09:53:37.837Z,49.54
2023-05-11T09:56:07.422Z,49.95
2023-05-11T09:58:54.694Z,50.67
2023-05-11T10:01:32.684Z,49.66
2023-05-11T10:04:17.905Z,49.78
2023-05-11T10:06:53.433Z,49.79
2023-05-11T10:09:25.843Z,48.60
2023-05-11T10:11:56.691Z,49.78
2023-05-11T10:14:28.499Z,48.96
2023-05-11T10:16:59.106Z,48.88
2023-05-11T10:19:28.923Z,47.30
2023-05-11T10:21:58.641Z,47.85
2023-05-11T10:24:28.488Z,49.26
2023-05-11T10:26:59.078Z,50.49
2023-05-11T10:29:27.972Z,50.19
2023-05-11T10:31:59.097Z,48.55
2023-05-11T10:34:29.815Z,49.88
2023-05-11T10:37:01.985Z,50.92
2023-05-11T10:39:31.179Z,48.40
2023-05-11T10:42:13.147Z,49.09
2023-05-11T10:45:16.767Z,48.65
2023-05-11T10:48:13.201Z,46.98
2023-05-11T10:50:57.710Z,48.63
2023-05-11T10:53:46.574Z,46.55
2023-05-11T10:56:32.174Z,44.72
2023-05-11T10:59:26.707Z,43.43
2023-05-11T11:01:59.164Z,45.10
2023-05-11T11:04:42.421Z,45.98
2023-05-11T11:07:17.242Z,45.66
2023-05-11T11:09:53.799Z,44.75
2023-05-11T11:12:23.082Z,42.51
2023-05-11T11:14:59.138Z,42.19
2023-05-11T11:17:31.747Z,43.92
2023-05-11T11:20:01.552Z,41.92
2023-05-11T11:22:48.417Z,43.24
2023-05-11T11:25:38.093Z,40.96
2023-05-11T11:28:06.538Z,43.22
2023-05-11T11:30:34.870Z,40.49
2023-05-11T11:33:34.002Z,41.94
2023-05-11T11:36:03.132Z,39.59
2023-05-11T11:38:34.219Z,40.29
2023-05-11T11:41:03.763Z,40.03
2023-05-11T11:43:46.204Z,41.56
2023-05-11T11:46:28.035Z,42.68
2023-05-11T11:49:08.755Z,41.34
2023-05-11T11:51:40.805Z,42.02
2023-05-11T11:54:10.557Z,42.50
2023-05-11T11:56:46.062Z,43.21
2023-05-11T11:59:16.308Z,44.53
2023-05-11T12:01:46.572Z,44.32
2023-05-11T12:04:50.491Z,44.33
2023-05-11T12:07:21.470Z,43.80
2023-05-11T12:09:53.077Z,43.76
2023-05-11T12:12:22.514Z,44.46
2023-05-11T12:14:50.924Z,44.56
2023-05-11T12:17:26.366Z,45.09
2023-05-11T12:19:54.714Z,46.46
2023-05-11T12:22:27.147Z,45.23
2023-05-11T12:25:00.614Z,45.30
2023-05-11T12:27:29.215Z,46.08
2023-05-11T12:29:58.736Z,45.57
2023-05-11T12:32:29.232Z,45.83
2023-05-11T12:35:01.902Z,43.03
2023-05-11T12:37:31.100Z,44.07
2023-05-11T12:40:01.137Z,44.37
2023-05-11T12:42:29.515Z,45.14
2023-05-11T12:44:58.057Z,45.00
2023-05-11T12:47:26.391Z,45.84
2023-05-11T12:49:54.973Z,46.40
2023-05-11T12:52:24.975Z,46.04
2023-05-11T12:54:55.030Z,45.76
2023-05-11T12:57:28.804Z,45.98
2023-05-11T13:00:12.941Z,46.07
2023-05-11T13:02:52.306Z,44.61
2023-05-11T13:05:24.999Z,44.41
2023-05-11T13:07:58.956Z,45.63
2023-05-11T13:10:28.049Z,46.36
2023-05-11T13:12:58.130Z,46.23
2023-05-11T13:15:28.851Z,47.08
2023-05-11T13:17:59.302Z,46.63
2023-05-11T13:20:30.005Z,46.50
2023-05-11T13:23:06.431Z,44.93
2023-05-11T13:25:35.763Z,44.89
2023-05-11T13:28:05.845Z,43.62
2023-05-11T13:30:35.267Z,43.88
2023-05-11T13:33:03.895Z,44.71
2023-05-11T13:35:32.262Z,45.06
2023-05-11T13:38:00.575Z,45.57
2023-05-11T13:40:29.109Z,45.34
2023-05-11T13:42:57.543Z,44.75
2023-05-11T13:45:27.190Z,44.20
2023-05-11T13:47:56.062Z,44.13
2023-05-11T13:50:24.681Z,44.63
2023-05-11T13:52:53.148Z,43.42
2023-05-11T13:55:22.299Z,42.90
2023-05-11T13:57:50.695Z,44.08
2023-05-11T14:00:19.862Z,42.18
2023-05-11T14:02:50.895Z,43.40
2023-05-11T14:05:19.478Z,43.41
2023-05-11T14:07:49.045Z,43.41
2023-05-11T14:10:18.207Z,44.82
2023-05-11T14:12:46.920Z,44.74
2023-05-11T14:15:15.474Z,45.78
2023-05-11T14:17:43.849Z,44.52
2023-05-11T14:20:14.883Z,44.19
2023-05-11T14:22:43.164Z,44.18
2023-05-11T14:25:11.992Z,45.19
2023-05-11T14:27:40.507Z,44.12
2023-05-11T14:30:09.966Z,43.58
2023-05-11T14:32:38.346Z,44.51
2023-05-11T14:35:07.240Z,43.32
2023-05-11T14:37:37.425Z,43.49
2023-05-11T14:40:06.627Z,43.49
2023-05-11T14:42:34.925Z,44.37
2023-05-11T14:45:03.219Z,45.86
2023-05-11T14:47:32.209Z,45.87
2023-05-11T14:50:00.594Z,47.66
2023-05-11T14:52:28.953Z,48.87
2023-05-11T14:54:58.636Z,49.59
2023-05-11T14:57:26.998Z,51.98
2023-05-11T14:59:59.968Z,53.58
2023-05-11T15:02:30.002Z,52.87
2023-05-11T15:04:58.421Z,53.78
2023-05-11T15:07:26.996Z,54.62
2023-05-11T15:09:56.164Z,55.20
2023-05-11T15:12:25.923Z,55.43
2023-05-11T15:14:54.234Z,54.99
2023-05-11T15:17:22.676Z,55.93
2023-05-11T15:19:51.024Z,56.75
2023-05-11T15:22:19.486Z,57.25
2023-05-11T15:24:47.781Z,57.00
2023-05-11T15:27:16.377Z,56.46
2023-05-11T15:29:46.113Z,57.22
2023-05-11T15:32:15.758Z,57.72
2023-05-11T15:34:54.818Z,57.87
2023-05-11T15:37:24.169Z,57.69
2023-05-11T15:39:52.565Z,57.74
2023-05-11T15:42:21.064Z,57.03
2023-05-11T15:44:50.855Z,57.88
2023-05-11T15:47:19.100Z,58.25
2023-05-11T15:49:47.303Z,59.06
2023-05-11T15:52:15.512Z,59.03
2023-05-11T15:54:43.860Z,58.34
2023-05-11T15:57:12.200Z,58.50
2023-05-11T15:59:40.518Z,58.65
2023-05-11T16:02:10.344Z,58.67
2023-05-11T16:04:38.676Z,59.78
2023-05-11T16:07:07.156Z,59.51
2023-05-11T16:09:35.369Z,59.19
2023-05-11T16:12:03.792Z,60.30
2023-05-11T16:14:32.391Z,61.68
2023-05-11T16:17:01.816Z,60.67
2023-05-11T16:19:31.581Z,61.46
2023-05-11T16:22:00.003Z,62.29
2023-05-11T16:24:31.544Z,62.59
2023-05-11T16:27:01.315Z,62.08
2023-05-11T16:29:29.704Z,62.00
2023-05-11T16:31:58.637Z,63.10
2023-05-11T16:34:27.472Z,64.29
2023-05-11T16:36:59.001Z,64.63
2023-05-11T16:39:27.749Z,65.02
2023-05-11T16:41:56.086Z,64.73
2023-05-11T16:44:24.793Z,64.84
2023-05-11T16:46:53.562Z,65.99
2023-05-11T16:49:21.972Z,66.67
2023-05-11T16:51:50.286Z,68.66
2023-05-11T16:54:19.970Z,70.09
2023-05-11T16:56:48.367Z,69.87
2023-05-11T16:59:16.910Z,71.13
2023-05-11T17:01:46.282Z,70.50
2023-05-11T17:04:15.041Z,69.82
2023-05-11T17:06:43.707Z,70.37
2023-05-11T17:09:12.088Z,71.92
2023-05-11T17:11:41.793Z,73.51
2023-05-11T17:14:10.171Z,73.92
2023-05-11T17:16:38.689Z,74.58
2023-05-11T17:19:08.061Z,75.39
2023-05-11T17:21:36.566Z,75.20
2023-05-11T17:24:05.198Z,75.79
2023-05-11T17:26:46.405Z,75.31
2023-05-11T17:29:17.574Z,75.96
2023-05-11T17:31:49.037Z,75.96
2023-05-11T17:34:17.861Z,76.13
2023-05-11T17:36:46.359Z,76.92
2023-05-11T17:39:16.105Z,76.91
2023-05-11T17:41:44.448Z,77.72
2023-05-11T17:44:13.027Z,78.34
2023-05-11T17:46:43.299Z,78.73
2023-05-11T17:49:11.743Z,78.51
2023-05-11T17:51:40.137Z,77.70
2023-05-11T17:54:08.435Z,79.22
2023-05-11T17:56:36.732Z,81.48
2023-05-11T17:59:05.441Z,82.31
2023-05-11T18:01:34.744Z,82.19
2023-05-11T18:04:04.833Z,82.31
2023-05-11T18:06:34.754Z,80.23
2023-05-11T18:09:05.065Z,80.89
2023-05-11T18:11:33.831Z,82.94
2023-05-11T18:14:02.201Z,84.25
2023-05-11T18:16:30.650Z,84.22
2023-05-11T18:18:59.883Z,84.86
2023-05-11T18:21:29.916Z,86.00
2023-05-11T18:23:58.251Z,85.75
2023-05-11T18:26:26.875Z,86.73
2023-05-11T18:28:55.931Z,86.59
2023-05-11T18:31:24.228Z,87.25
2023-05-11T18:33:52.640Z,87.94
2023-05-11T18:36:20.949Z,85.60
2023-05-11T18:38:50.643Z,84.65
2023-05-11T18:41:19.160Z,85.20
2023-05-11T18:43:48.489Z,86.14
2023-05-11T18:46:16.816Z,85.10
2023-05-11T18:48:45.836Z,84.97
2023-05-11T18:51:18.953Z,84.90
2023-05-11T18:53:47.244Z,85.83
2023-05-11T18:56:17.448Z,86.98
2023-05-11T18:58:46.663Z,88.81
2023-05-11T19:01:15.869Z,89.51
2023-05-11T19:03:44.303Z,90.71
2023-05-11T19:06:12.663Z,89.39
2023-05-11T19:08:40.964Z,88.05
2023-05-11T19:11:10.801Z,87.95
2023-05-11T19:13:40.791Z,88.56
2023-05-11T19:16:09.016Z,88.02
2023-05-11T19:18:37.349Z,88.36
2023-05-11T19:21:06.173Z,90.65
2023-05-11T19:23:35.042Z,92.80
2023-05-11T19:26:03.369Z,91.25
2023-05-11T19:28:31.868Z,92.04
2023-05-11T19:31:06.423Z,93.61
2023-05-11T19:33:35.069Z,92.89
2023-05-11T19:36:03.640Z,94.64
2023-05-11T19:38:31.975Z,94.96
2023-05-11T19:41:00.837Z,97.94
2023-05-11T19:43:29.117Z,95.71
2023-05-11T19:45:57.523Z,94.81
2023-05-11T19:48:27.500Z,96.98
2023-05-11T19:50:58.962Z,97.83
2023-05-11T19:53:28.151Z,95.65
2023-05-11T19:55:56.408Z,94.09
2023-05-11T19:58:25.041Z,91.89
2023-05-11T20:00:53.541Z,90.95
2023-05-11T20:03:21.945Z,91.48
2023-05-11T20:05:51.758Z,92.00
2023-05-11T20:08:20.370Z,92.46
2023-05-11T20:10:48.651Z,89.13
2023-05-11T20:13:16.983Z,87.24
2023-05-11T20:15:45.425Z,85.51
2023-05-11T20:18:13.685Z,83.98
2023-05-11T20:20:42.144Z,85.05
2023-05-11T20:23:11.879Z,86.29
2023-05-11T20:25:43.942Z,85.14
2023-05-11T20:28:12.624Z,84.36
2023-05-11T20:30:40.882Z,82.99
2023-05-11T20:35:41.518Z,81.89
2023-05-11T20:38:11.176Z,80.71
2023-05-11T20:40:39.428Z,81.01
2023-05-11T20:43:07.728Z,83.35
2023-05-11T20:45:36.423Z,83.44
2023-05-11T20:48:04.776Z,83.15
2023-05-11T20:50:33.195Z,82.90
2023-05-11T20:53:02.397Z,81.33
2023-05-11T20:55:32.108Z,82.27
2023-05-11T20:58:00.394Z,81.93
2023-05-11T21:00:28.674Z,80.68
2023-05-11T21:02:57.448Z,81.28
2023-05-11T21:05:25.874Z,81.54
2023-05-11T21:07:54.207Z,84.04
2023-05-11T21:10:22.544Z,88.46
2023-05-11T21:12:52.261Z,90.21
2023-05-11T21:15:20.605Z,91.37
2023-05-11T21:17:48.884Z,95.92
2023-05-11T21:20:17.518Z,99.46
2023-05-11T21:22:45.977Z,100.00
2023-05-11T21:25:14.391Z,100.00
2023-05-11T21:27:42.850Z,100.00
2023-05-11T21:30:13.603Z,100.00
2023-05-11T21:32:41.899Z,100.00
2023-05-11T21:35:15.163Z,100.00
2023-05-11T21:37:45.325Z,100.00
2023-05-11T21:40:14.398Z,100.00
2023-05-11T21:42:42.641Z,100.00
2023-05-11T21:45:13.271Z,100.00
2023-05-11T21:47:42.231Z,100.00
2023-05-11T21:50:11.494Z,100.00
2023-05-11T21:52:39.836Z,100.00
2023-05-11T21:55:08.890Z,100.00
2023-05-11T21:57:37.299Z,100.00
2023-05-11T22:00:08.461Z,100.00
2023-05-11T22:02:38.811Z,100.00
2023-05-11T22:05:07.773Z,100.00
2023-05-11T22:07:36.163Z,100.00
2023-05-11T22:10:04.449Z,100.00
2023-05-11T22:12:32.822Z,100.00
2023-05-11T22:15:01.173Z,100.00
2023-05-11T22:17:29.625Z,100.00
2023-05-11T22:19:59.378Z,100.00
2023-05-11T22:22:27.786Z,100.00
2023-05-11T22:24:56.096Z,100.00
2023-05-11T22:27:24.776Z,100.00
2023-05-11T22:29:53.519Z,97.93
2023-05-11T22:32:21.843Z,97.51
2023-05-11T22:34:59.637Z,95.44
2023-05-11T22:37:28.647Z,96.23
2023-05-11T22:39:57.331Z,96.68
2023-05-11T22:42:25.556Z,97.42
2023-05-11T22:44:53.842Z,99.07
2023-05-11T22:47:22.264Z,100.00
2023-05-11T22:49:50.546Z,100.00
2023-05-11T22:52:20.145Z,100.00
2023-05-11T22:54:48.359Z,100.00
2023-05-11T22:57:17.441Z,100.00
2023-05-11T22:59:46.860Z,100.00
2023-05-11T23:02:15.224Z,100.00
2023-05-11T23:04:43.611Z,100.00
2023-05-11T23:07:13.093Z,100.00
2023-05-11T23:09:42.822Z,100.00
2023-05-11T23:12:11.250Z,100.00
2023-05-11T23:14:39.532Z,100.00
2023-05-11T23:17:07.802Z,100.00
2023-05-11T23:19:36.449Z,100.00
2023-05-11T23:22:04.803Z,100.00
2023-05-11T23:24:33.053Z,100.00
2023-05-11T23:27:03.468Z,100.00
2023-05-11T23:29:31.885Z,100.00
2023-05-11T23:32:00.201Z,100.00
2023-05-11T23:34:28.783Z,100.00
2023-05-11T23:36:57.389Z,100.00
2023-05-11T23:39:25.670Z,100.00
2023-05-11T23:41:53.878Z,100.00
2023-05-11T23:44:23.530Z,100.00
2023-05-11T23:46:51.893Z,100.00
2023-05-11T23:49:20.218Z,100.00
2023-05-11T23:51:48.427Z,100.00
2023-05-11T23:54:16.721Z,100.00
2023-05-11T23:56:45.311Z,100.00
2023-05-11T23:59:13.648Z,100.00
